createdAt,value
2019-05-15T00:00:10.022Z,9.20
2019-05-15T00:02:38.993Z,9.10
2019-05-15T00:05:09.068Z,9.00
2019-05-15T00:07:39.279Z,8.90
2019-05-15T00:10:08.753Z,9.00
2019-05-15T00:12:39.593Z,9.00
2019-05-15T00:15:09.327Z,9.10
2019-05-15T00:17:39.488Z,9.10
2019-05-15T00:20:10.057Z,9.10
2019-05-15T00:22:38.787Z,9.10
2019-05-15T00:25:09.279Z,9.00
2019-05-15T00:27:38.832Z,9.00
2019-05-15T00:30:09.572Z,9.00
2019-05-15T00:32:39.273Z,8.90
2019-05-15T00:35:09.326Z,8.80
2019-05-15T00:37:38.840Z,8.70
2019-05-15T00:40:08.772Z,8.70
2019-05-15T00:42:38.535Z,8.70
2019-05-15T00:45:09.427Z,8.60
2019-05-15T00:47:39.625Z,8.70
2019-05-15T00:50:09.209Z,8.70
2019-05-15T00:52:39.186Z,8.60
2019-05-15T00:55:08.788Z,8.50
2019-05-15T00:57:39.151Z,8.40
2019-05-15T01:00:08.636Z,8.30
2019-05-15T01:02:38.820Z,8.30
2019-05-15T01:05:08.245Z,8.20
2019-05-15T01:07:39.259Z,8.20
2019-05-15T01:10:09.860Z,8.20
2019-05-15T01:12:38.508Z,8.10
2019-05-15T01:15:09.313Z,8.10
2019-05-15T01:17:39.145Z,8.00
2019-05-15T01:20:08.612Z,8.00
2019-05-15T01:22:39.323Z,8.00
2019-05-15T01:25:08.587Z,7.90
2019-05-15T01:27:38.611Z,7.90
2019-05-15T01:30:09.200Z,7.90
2019-05-15T01:32:39.585Z,7.80
2019-05-15T01:35:09.542Z,7.70
2019-05-15T01:37:39.039Z,7.70
2019-05-15T01:40:08.819Z,7.70
2019-05-15T01:42:38.789Z,7.70
2019-05-15T01:45:08.588Z,7.70
2019-05-15T01:47:38.806Z,7.50
2019-05-15T01:50:09.193Z,7.40
2019-05-15T01:52:38.921Z,7.50
2019-05-15T01:55:09.065Z,7.50
2019-05-15T01:57:38.534Z,7.50
2019-05-15T02:00:08.983Z,7.40
2019-05-15T02:02:38.978Z,7.40
2019-05-15T02:05:08.743Z,7.30
2019-05-15T02:07:39.034Z,7.10
2019-05-15T02:10:09.155Z,7.00
2019-05-15T02:12:38.817Z,7.00
2019-05-15T02:15:08.756Z,7.20
2019-05-15T02:17:39.366Z,7.20
2019-05-15T02:20:08.466Z,7.20
2019-05-15T02:22:41.959Z,7.20
2019-05-15T02:25:08.619Z,7.20
2019-05-15T02:27:39.270Z,7.10
2019-05-15T02:30:22.319Z,7.20
2019-05-15T02:32:39.890Z,7.10
2019-05-15T02:35:10.102Z,7.10
2019-05-15T02:37:41.185Z,7.00
2019-05-15T02:40:10.302Z,7.00
2019-05-15T02:42:40.059Z,7.00
2019-05-15T02:45:10.077Z,7.00
2019-05-15T02:47:39.639Z,7.00
2019-05-15T02:50:10.717Z,7.00
2019-05-15T02:52:44.467Z,7.00
2019-05-15T02:55:09.994Z,6.90
2019-05-15T02:57:39.478Z,7.00
2019-05-15T03:00:10.779Z,6.90
2019-05-15T03:02:41.208Z,6.90
2019-05-15T03:05:09.819Z,6.80
2019-05-15T03:07:40.231Z,6.70
2019-05-15T03:10:09.589Z,6.70
2019-05-15T03:12:40.910Z,6.70
2019-05-15T03:15:09.620Z,6.70
2019-05-15T03:17:40.225Z,6.60
2019-05-15T03:20:10.345Z,6.60
2019-05-15T03:22:40.409Z,6.60
2019-05-15T03:25:11.187Z,6.50
2019-05-15T03:27:40.049Z,6.40
2019-05-15T03:30:13.771Z,6.40
2019-05-15T03:32:50.604Z,6.40
2019-05-15T03:35:14.680Z,6.20
2019-05-15T03:37:40.143Z,6.10
2019-05-15T03:40:10.296Z,6.10
2019-05-15T03:42:39.754Z,6.20
2019-05-15T03:45:10.149Z,6.20
2019-05-15T03:47:40.118Z,6.20
2019-05-15T03:50:10.362Z,6.10
2019-05-15T03:52:39.757Z,6.10
2019-05-15T03:55:10.758Z,6.10
2019-05-15T03:57:40.061Z,6.10
2019-05-15T04:00:09.701Z,6.10
2019-05-15T04:02:39.522Z,6.00
2019-05-15T04:05:11.802Z,6.00
2019-05-15T04:07:39.746Z,6.10
2019-05-15T04:10:10.059Z,6.00
2019-05-15T04:12:40.584Z,6.00
2019-05-15T04:15:10.586Z,6.00
2019-05-15T04:17:40.470Z,6.00
2019-05-15T04:20:10.035Z,6.10
2019-05-15T04:22:40.010Z,6.10
2019-05-15T04:25:09.923Z,6.10
2019-05-15T04:27:40.828Z,6.00
2019-05-15T04:30:10.636Z,6.10
2019-05-15T04:32:40.247Z,6.10
2019-05-15T04:35:10.328Z,6.10
2019-05-15T04:37:40.562Z,6.10
2019-05-15T04:40:10.021Z,6.00
2019-05-15T04:42:39.726Z,6.00
2019-05-15T04:45:10.073Z,6.00
2019-05-15T04:47:39.845Z,6.00
2019-05-15T04:50:09.522Z,5.90
2019-05-15T04:52:42.481Z,5.90
2019-05-15T04:55:10.069Z,5.80
2019-05-15T04:57:40.091Z,6.00
2019-05-15T05:00:10.040Z,6.10
2019-05-15T05:02:39.971Z,6.20
2019-05-15T05:05:10.537Z,6.30
2019-05-15T05:07:39.608Z,6.20
2019-05-15T05:10:09.667Z,6.20
2019-05-15T05:12:41.957Z,6.40
2019-05-15T05:15:09.301Z,6.40
2019-05-15T05:17:39.125Z,6.40
2019-05-15T05:20:08.386Z,6.50
2019-05-15T05:22:39.369Z,6.70
2019-05-15T05:25:08.088Z,6.80
2019-05-15T05:27:38.287Z,7.00
2019-05-15T05:30:08.386Z,7.20
2019-05-15T05:32:38.951Z,7.60
2019-05-15T05:35:08.435Z,7.80
2019-05-15T05:37:38.887Z,7.90
2019-05-15T05:40:08.811Z,8.10
2019-05-15T05:42:38.852Z,8.30
2019-05-15T05:45:09.274Z,8.60
2019-05-15T05:47:38.290Z,8.80
2019-05-15T05:50:08.064Z,8.70
2019-05-15T05:52:38.716Z,8.70
2019-05-15T05:55:08.768Z,8.80
2019-05-15T05:57:38.231Z,9.00
2019-05-15T06:00:09.359Z,9.30
2019-05-15T06:02:47.463Z,9.50
2019-05-15T06:05:08.354Z,9.50
2019-05-15T06:07:38.695Z,9.70
2019-05-15T06:10:08.918Z,10.10
2019-05-15T06:12:39.009Z,10.30
2019-05-15T06:15:08.900Z,10.60
2019-05-15T06:17:39.138Z,11.00
2019-05-15T06:20:08.166Z,11.30
2019-05-15T06:22:38.707Z,11.60
2019-05-15T06:25:10.705Z,11.50
2019-05-15T06:27:39.093Z,11.60
2019-05-15T06:30:08.859Z,11.60
2019-05-15T06:32:39.916Z,11.60
2019-05-15T06:35:08.881Z,11.60
2019-05-15T06:37:39.706Z,11.80
2019-05-15T06:40:08.472Z,12.10
2019-05-15T06:42:39.291Z,12.30
2019-05-15T06:45:08.263Z,12.50
2019-05-15T06:47:39.192Z,12.70
2019-05-15T06:50:08.573Z,12.70
2019-05-15T06:52:38.053Z,12.80
2019-05-15T06:55:09.158Z,12.90
2019-05-15T06:57:39.627Z,12.90
2019-05-15T07:00:08.529Z,12.90
2019-05-15T07:02:38.319Z,12.90
2019-05-15T07:05:08.576Z,12.90
2019-05-15T07:07:38.625Z,13.10
2019-05-15T07:10:09.105Z,13.30
2019-05-15T07:12:39.156Z,13.10
2019-05-15T07:15:09.092Z,13.40
2019-05-15T07:17:39.364Z,13.50
2019-05-15T07:20:10.093Z,13.40
2019-05-15T07:22:39.064Z,13.30
2019-05-15T07:25:08.999Z,13.50
2019-05-15T07:27:39.097Z,13.80
2019-05-15T07:30:11.700Z,14.00
2019-05-15T07:32:39.705Z,14.10
2019-05-15T07:35:09.255Z,14.40
2019-05-15T07:37:38.740Z,14.50
2019-05-15T07:40:08.992Z,14.30
2019-05-15T07:42:38.713Z,14.20
2019-05-15T07:45:09.496Z,14.30
2019-05-15T07:47:38.620Z,14.20
2019-05-15T07:50:09.903Z,14.10
2019-05-15T07:52:39.776Z,14.30
2019-05-15T07:55:09.650Z,14.40
2019-05-15T07:57:39.430Z,14.70
2019-05-15T08:00:10.931Z,14.90
2019-05-15T08:02:39.470Z,15.00
2019-05-15T08:05:10.089Z,14.80
2019-05-15T08:07:39.124Z,14.60
2019-05-15T08:10:09.416Z,14.70
2019-05-15T08:12:39.185Z,15.00
2019-05-15T08:15:10.604Z,15.20
2019-05-15T08:17:58.596Z,14.90
2019-05-15T08:20:11.481Z,14.80
2019-05-15T08:22:39.878Z,14.80
2019-05-15T08:25:13.116Z,14.70
2019-05-15T08:27:39.059Z,14.90
2019-05-15T08:30:09.053Z,15.10
2019-05-15T08:32:38.940Z,15.10
2019-05-15T08:35:08.760Z,15.10
2019-05-15T08:37:38.420Z,14.80
2019-05-15T08:40:08.576Z,14.80
2019-05-15T08:42:41.685Z,14.80
2019-05-15T08:45:09.206Z,15.10
2019-05-15T08:47:38.643Z,15.00
2019-05-15T08:50:09.483Z,14.90
2019-05-15T08:52:39.330Z,15.00
2019-05-15T08:55:08.721Z,15.00
2019-05-15T08:57:38.351Z,15.00
2019-05-15T09:00:09.968Z,15.10
2019-05-15T09:02:38.518Z,15.60
2019-05-15T09:05:08.699Z,15.80
2019-05-15T09:07:38.504Z,15.50
2019-05-15T09:10:10.413Z,15.90
2019-05-15T09:12:39.161Z,16.10
2019-05-15T09:15:10.343Z,16.20
2019-05-15T09:17:39.939Z,16.20
2019-05-15T09:20:09.958Z,15.90
2019-05-15T09:22:38.489Z,15.50
2019-05-15T09:25:09.076Z,15.50
2019-05-15T09:27:38.329Z,16.20
2019-05-15T09:30:08.735Z,16.40
2019-05-15T09:32:39.258Z,16.20
2019-05-15T09:35:08.968Z,15.90
2019-05-15T09:37:38.659Z,16.10
2019-05-15T09:40:09.184Z,16.10
2019-05-15T09:42:38.609Z,17.00
2019-05-15T09:45:09.556Z,17.70
2019-05-15T09:47:39.614Z,18.40
2019-05-15T09:50:09.695Z,19.10
2019-05-15T09:52:39.036Z,18.80
2019-05-15T09:55:09.469Z,19.00
2019-05-15T09:57:38.833Z,19.20
2019-05-15T10:00:09.703Z,19.40
2019-05-15T10:02:39.456Z,19.90
2019-05-15T10:05:11.101Z,20.50
2019-05-15T10:07:40.339Z,20.70
2019-05-15T10:10:09.699Z,20.60
2019-05-15T10:12:38.666Z,20.50
2019-05-15T10:15:11.191Z,20.40
2019-05-15T10:17:38.766Z,20.80
2019-05-15T10:20:09.141Z,21.40
2019-05-15T10:22:37.779Z,21.50
2019-05-15T10:25:08.340Z,22.00
2019-05-15T10:27:39.538Z,22.40
2019-05-15T10:30:09.212Z,22.80
2019-05-15T10:32:39.562Z,21.10
2019-05-15T10:35:24.090Z,20.70
2019-05-15T10:37:39.309Z,20.20
2019-05-15T10:40:09.225Z,20.60
2019-05-15T10:42:39.765Z,20.80
2019-05-15T10:45:09.752Z,21.30
2019-05-15T10:47:38.925Z,21.70
2019-05-15T10:50:08.108Z,22.20
2019-05-15T10:52:38.214Z,21.50
2019-05-15T10:55:09.889Z,20.90
2019-05-15T10:57:42.658Z,21.00
2019-05-15T11:00:09.164Z,22.10
2019-05-15T11:02:39.461Z,22.20
2019-05-15T11:05:12.256Z,22.30
2019-05-15T11:07:40.715Z,23.10
2019-05-15T11:10:09.565Z,22.40
2019-05-15T11:12:38.684Z,22.30
2019-05-15T11:15:11.425Z,23.90
2019-05-15T11:17:39.310Z,23.50
2019-05-15T11:20:08.453Z,22.20
2019-05-15T11:22:42.309Z,22.10
2019-05-15T11:25:09.894Z,23.00
2019-05-15T11:27:39.070Z,23.80
2019-05-15T11:30:09.387Z,24.40
2019-05-15T11:32:39.155Z,23.80
2019-05-15T11:35:08.424Z,23.30
2019-05-15T11:37:44.093Z,23.10
2019-05-15T11:40:10.308Z,23.40
2019-05-15T11:42:39.512Z,22.10
2019-05-15T11:45:09.457Z,21.90
2019-05-15T11:47:39.699Z,21.30
2019-05-15T11:50:08.728Z,20.10
2019-05-15T11:52:40.069Z,20.40
2019-05-15T11:55:08.303Z,20.90
2019-05-15T11:57:43.463Z,21.00
2019-05-15T12:00:15.046Z,19.90
2019-05-15T12:02:38.533Z,20.20
2019-05-15T12:05:09.238Z,20.40
2019-05-15T12:07:38.322Z,20.10
2019-05-15T12:10:10.425Z,19.50
2019-05-15T12:12:38.716Z,18.70
2019-05-15T12:15:08.086Z,18.70
2019-05-15T12:17:38.820Z,18.90
2019-05-15T12:20:10.509Z,18.80
2019-05-15T12:25:09.792Z,18.40
2019-05-15T12:27:40.048Z,18.50
2019-05-15T12:30:12.675Z,18.30
2019-05-15T12:32:41.087Z,18.30
2019-05-15T12:35:10.236Z,18.70
2019-05-15T12:37:40.034Z,18.60
2019-05-15T13:00:13.700Z,18.00
2019-05-15T13:02:42.111Z,18.00
2019-05-15T13:05:11.182Z,18.10
2019-05-15T13:07:39.579Z,18.00
2019-05-15T13:10:08.836Z,17.90
2019-05-15T13:12:47.571Z,18.10
2019-05-15T13:15:08.401Z,18.30
2019-05-15T13:17:38.888Z,18.10
2019-05-15T13:20:08.505Z,18.00
2019-05-15T13:22:39.260Z,17.90
2019-05-15T13:25:08.687Z,17.80
2019-05-15T13:27:38.202Z,18.00
2019-05-15T13:30:10.628Z,17.70
2019-05-15T13:32:41.134Z,17.50
2019-05-15T13:35:10.140Z,17.20
2019-05-15T13:37:39.100Z,17.20
2019-05-15T13:40:08.240Z,17.20
2019-05-15T13:42:38.787Z,17.50
2019-05-15T13:45:13.142Z,17.50
2019-05-15T13:47:38.945Z,17.60
2019-05-15T13:50:07.989Z,17.50
2019-05-15T13:52:39.040Z,17.50
2019-05-15T13:55:08.478Z,17.50
2019-05-15T13:57:38.270Z,17.40
2019-05-15T14:00:09.149Z,17.50
2019-05-15T14:02:38.697Z,17.60
2019-05-15T14:05:09.500Z,17.70
2019-05-15T14:07:48.989Z,17.50
2019-05-15T14:10:09.459Z,17.40
2019-05-15T14:12:38.409Z,17.30
2019-05-15T14:15:09.249Z,17.40
2019-05-15T14:17:38.018Z,17.40
2019-05-15T14:20:08.958Z,17.30
2019-05-15T14:22:39.022Z,17.00
2019-05-15T14:25:09.353Z,17.10
2019-05-15T14:27:39.657Z,17.50
2019-05-15T14:30:09.379Z,17.20
2019-05-15T14:32:39.380Z,17.10
2019-05-15T14:35:09.915Z,17.20
2019-05-15T14:37:38.386Z,17.30
2019-05-15T14:40:09.112Z,17.10
2019-05-15T14:42:39.611Z,17.10
2019-05-15T14:45:09.268Z,17.10
2019-05-15T14:47:38.998Z,17.30
2019-05-15T14:50:09.853Z,17.20
2019-05-15T14:52:38.680Z,16.90
2019-05-15T14:55:07.999Z,17.00
2019-05-15T14:57:39.231Z,17.20
2019-05-15T15:00:08.875Z,17.30
2019-05-15T15:02:38.995Z,17.40
2019-05-15T15:05:09.084Z,17.40
2019-05-15T15:07:38.328Z,17.40
2019-05-15T15:10:07.854Z,17.30
2019-05-15T15:12:39.173Z,17.40
2019-05-15T15:15:09.757Z,17.40
2019-05-15T15:17:38.691Z,17.10
2019-05-15T15:20:07.431Z,17.10
2019-05-15T15:22:35.834Z,17.10
2019-05-15T15:25:09.615Z,16.90
2019-05-15T15:27:38.948Z,16.90
2019-05-15T15:30:09.601Z,17.10
2019-05-15T15:32:38.631Z,17.20
2019-05-15T15:35:08.473Z,17.20
2019-05-15T15:37:38.117Z,17.10
2019-05-15T15:40:08.292Z,16.90
2019-05-15T15:42:39.300Z,16.90
2019-05-15T15:45:09.106Z,17.10
2019-05-15T15:47:38.914Z,17.10
2019-05-15T15:50:09.535Z,16.90
2019-05-15T15:52:38.783Z,16.90
2019-05-15T15:55:08.942Z,16.90
2019-05-15T15:57:39.713Z,16.80
2019-05-15T16:00:10.234Z,16.80
2019-05-15T16:02:40.976Z,16.80
2019-05-15T16:05:09.544Z,16.90
2019-05-15T16:07:38.226Z,16.90
2019-05-15T16:10:08.372Z,16.90
2019-05-15T16:12:38.867Z,16.80
2019-05-15T16:15:08.856Z,16.80
2019-05-15T16:17:38.525Z,16.80
2019-05-15T16:20:09.007Z,16.70
2019-05-15T16:22:38.178Z,16.50
2019-05-15T16:25:10.236Z,16.60
2019-05-15T16:27:38.717Z,16.40
2019-05-15T16:30:08.655Z,16.50
2019-05-15T16:32:39.021Z,16.60
2019-05-15T16:35:10.892Z,16.60
2019-05-15T16:37:39.415Z,16.80
2019-05-15T16:40:08.446Z,16.90
2019-05-15T16:42:38.612Z,16.80
2019-05-15T16:45:09.319Z,16.60
2019-05-15T16:47:38.821Z,16.40
2019-05-15T16:50:08.437Z,16.40
2019-05-15T16:52:38.861Z,16.20
2019-05-15T16:55:09.273Z,16.10
2019-05-15T16:57:38.827Z,16.10
2019-05-15T17:00:09.531Z,16.20
2019-05-15T17:02:39.178Z,16.10
2019-05-15T17:05:08.395Z,16.10
2019-05-15T17:07:38.775Z,16.20
2019-05-15T17:10:08.389Z,16.10
2019-05-15T17:12:38.863Z,16.00
2019-05-15T17:15:09.450Z,16.10
2019-05-15T17:17:38.692Z,16.10
2019-05-15T17:20:10.042Z,16.00
2019-05-15T17:22:38.876Z,16.10
2019-05-15T17:25:09.221Z,16.10
2019-05-15T17:27:38.050Z,16.00
2019-05-15T17:30:09.445Z,16.00
2019-05-15T17:32:38.929Z,15.90
2019-05-15T17:35:09.871Z,15.80
2019-05-15T17:37:38.560Z,15.70
2019-05-15T17:40:07.511Z,15.90
2019-05-15T17:42:38.558Z,16.10
2019-05-15T17:45:08.997Z,16.00
2019-05-15T17:47:38.848Z,16.00
2019-05-15T17:50:08.555Z,16.00
2019-05-15T17:52:38.781Z,15.90
2019-05-15T17:55:07.572Z,15.80
2019-05-15T17:57:38.535Z,15.70
2019-05-15T18:00:11.604Z,15.60
2019-05-15T18:02:38.211Z,15.70
2019-05-15T18:05:07.831Z,15.60
2019-05-15T18:07:38.713Z,15.50
2019-05-15T18:10:08.444Z,15.50
2019-05-15T18:12:38.894Z,15.60
2019-05-15T18:15:09.074Z,15.60
2019-05-15T18:17:39.292Z,15.70
2019-05-15T18:20:09.850Z,15.90
2019-05-15T18:22:38.722Z,15.70
2019-05-15T18:25:10.215Z,15.80
2019-05-15T18:27:39.091Z,15.60
2019-05-15T18:30:09.309Z,15.50
2019-05-15T18:32:39.164Z,15.60
2019-05-15T18:35:08.439Z,15.60
2019-05-15T18:37:39.342Z,15.40
2019-05-15T18:40:09.899Z,15.00
2019-05-15T18:42:38.941Z,15.00
2019-05-15T18:45:09.654Z,15.10
2019-05-15T18:47:38.976Z,14.80
2019-05-15T18:50:12.700Z,14.70
2019-05-15T18:52:38.421Z,14.70
2019-05-15T18:55:08.820Z,14.50
2019-05-15T18:57:39.979Z,14.40
2019-05-15T19:00:10.187Z,14.30
2019-05-15T19:02:42.136Z,14.20
2019-05-15T19:05:11.130Z,14.30
2019-05-15T19:07:42.433Z,14.30
2019-05-15T19:10:12.650Z,14.30
2019-05-15T19:12:41.045Z,14.10
2019-05-15T19:15:09.898Z,13.90
2019-05-15T19:17:38.963Z,13.80
2019-05-15T19:20:08.905Z,13.80
2019-05-15T19:22:40.441Z,13.70
2019-05-15T19:25:09.809Z,13.80
2019-05-15T19:27:39.289Z,13.70
2019-05-15T19:30:13.118Z,13.70
2019-05-15T19:32:41.514Z,13.70
2019-05-15T19:35:12.292Z,13.70
2019-05-15T19:37:40.239Z,13.40
2019-05-15T19:40:09.490Z,13.30
2019-05-15T19:42:38.517Z,13.30
2019-05-15T19:45:08.671Z,13.20
2019-05-15T19:47:38.866Z,13.20
2019-05-15T19:50:08.485Z,13.30
2019-05-15T19:52:37.031Z,13.20
2019-05-15T19:55:08.605Z,13.10
2019-05-15T19:57:38.722Z,13.10
2019-05-15T20:00:08.655Z,13.00
2019-05-15T20:02:38.056Z,13.00
2019-05-15T20:05:09.256Z,12.90
2019-05-15T20:07:39.024Z,12.90
2019-05-15T20:10:09.472Z,12.70
2019-05-15T20:12:38.825Z,12.70
2019-05-15T20:15:09.147Z,12.80
2019-05-15T20:17:38.633Z,12.70
2019-05-15T20:20:08.921Z,12.70
2019-05-15T20:22:40.182Z,12.60
2019-05-15T20:25:12.607Z,12.60
2019-05-15T20:27:40.998Z,12.50
2019-05-15T20:30:09.942Z,12.30
2019-05-15T20:32:38.901Z,12.30
2019-05-15T20:35:09.288Z,12.20
2019-05-15T20:37:39.004Z,12.20
2019-05-15T20:40:09.471Z,12.10
2019-05-15T20:42:38.602Z,12.10
2019-05-15T20:45:12.162Z,12.00
2019-05-15T20:47:39.138Z,12.10
2019-05-15T20:50:08.911Z,11.90
2019-05-15T20:52:39.390Z,11.90
2019-05-15T20:55:08.976Z,11.80
2019-05-15T20:57:40.252Z,11.80
2019-05-15T21:00:09.063Z,11.80
2019-05-15T21:02:38.000Z,11.90
2019-05-15T21:05:08.754Z,11.80
2019-05-15T21:07:42.161Z,11.80
2019-05-15T21:10:09.454Z,11.80
2019-05-15T21:12:41.121Z,11.60
2019-05-15T21:15:09.320Z,11.60
2019-05-15T21:17:40.249Z,11.60
2019-05-15T21:20:09.443Z,11.50
2019-05-15T21:22:40.453Z,11.50
2019-05-15T21:25:10.896Z,11.40
2019-05-15T21:27:42.698Z,11.30
2019-05-15T21:30:10.365Z,11.30
2019-05-15T21:32:38.839Z,11.20
2019-05-15T21:35:09.058Z,11.30
2019-05-15T21:37:38.975Z,11.30
2019-05-15T21:40:09.116Z,11.20
2019-05-15T21:42:39.133Z,11.10
2019-05-15T21:45:14.150Z,10.90
2019-05-15T21:47:39.876Z,10.90
2019-05-15T21:50:08.816Z,11.00
2019-05-15T21:52:39.053Z,11.10
2019-05-15T21:55:09.524Z,11.20
2019-05-15T21:57:40.218Z,11.20
2019-05-15T22:00:11.580Z,11.20
2019-05-15T22:02:39.970Z,11.10
2019-05-15T22:05:08.864Z,11.10
2019-05-15T22:07:38.819Z,11.10
2019-05-15T22:10:10.365Z,11.10
2019-05-15T22:12:37.990Z,11.10
2019-05-15T22:15:09.467Z,11.00
2019-05-15T22:17:39.027Z,11.00
2019-05-15T22:20:08.725Z,10.90
2019-05-15T22:22:37.436Z,10.90
2019-05-15T22:25:10.773Z,10.90
2019-05-15T22:27:38.283Z,10.90
2019-05-15T22:30:08.616Z,10.90
2019-05-15T22:32:41.270Z,10.90
2019-05-15T22:35:13.624Z,10.80
2019-05-15T22:37:41.575Z,10.80
2019-05-15T22:40:10.799Z,10.80
2019-05-15T22:42:39.307Z,10.70
2019-05-15T22:45:11.557Z,10.70
2019-05-15T22:47:39.148Z,10.70
2019-05-15T22:50:08.391Z,10.70
2019-05-15T22:52:38.847Z,10.70
2019-05-15T22:55:07.477Z,10.60
2019-05-15T22:57:35.875Z,10.50
2019-05-15T23:00:08.484Z,10.20
2019-05-15T23:02:36.693Z,10.10
2019-05-15T23:05:20.962Z,10.10
2019-05-15T23:07:38.716Z,10.10
2019-05-15T23:10:08.932Z,10.00
2019-05-15T23:12:38.233Z,9.90
2019-05-15T23:15:08.636Z,10.00
2019-05-15T23:17:38.384Z,10.10
2019-05-15T23:20:08.881Z,10.20
2019-05-15T23:22:38.598Z,10.30
2019-05-15T23:25:07.643Z,10.30
2019-05-15T23:27:38.081Z,10.30
2019-05-15T23:30:08.709Z,10.30
2019-05-15T23:32:39.153Z,10.20
2019-05-15T23:35:06.976Z,10.20
2019-05-15T23:37:35.374Z,10.10
2019-05-15T23:40:08.816Z,10.00
2019-05-15T23:42:39.036Z,10.00
2019-05-15T23:45:08.088Z,9.90
2019-05-15T23:47:38.417Z,9.90
2019-05-15T23:50:07.315Z,9.60
2019-05-15T23:52:38.285Z,9.60
2019-05-15T23:55:08.668Z,9.60
2019-05-15T23:57:39.181Z,9.60
